createdAt,value
2022-12-07T00:00:14.024Z,94892.63
2022-12-07T00:03:22.316Z,94891.34
2022-12-07T00:06:31.007Z,94888.13
2022-12-07T00:09:40.322Z,94899.53
2022-12-07T00:12:48.685Z,94888.19
2022-12-07T00:16:02.417Z,94891.81
2022-12-07T00:19:14.254Z,94895.41
2022-12-07T00:22:22.549Z,94886.03
2022-12-07T00:25:32.673Z,94882.44
2022-12-07T00:28:42.178Z,94880.91
2022-12-07T00:31:51.832Z,94885.81
2022-12-07T00:35:00.137Z,94887.63
2022-12-07T00:38:08.880Z,94886.66
2022-12-07T00:41:19.807Z,94884.84
2022-12-07T00:44:28.277Z,94888.59
2022-12-07T00:47:38.140Z,94883.34
2022-12-07T00:50:46.826Z,94884.94
2022-12-07T00:53:55.600Z,94881.69
2022-12-07T00:57:03.819Z,94887.09
2022-12-07T01:00:12.760Z,94886.13
2022-12-07T01:03:22.680Z,94895.44
2022-12-07T01:06:32.216Z,94879.34
2022-12-07T01:09:40.434Z,94877.06
2022-12-07T01:12:48.823Z,94877.50
2022-12-07T01:16:01.762Z,94880.66
2022-12-07T01:19:11.647Z,94876.38
2022-12-07T01:22:19.836Z,94880.19
2022-12-07T01:25:28.056Z,94886.75
2022-12-07T01:28:36.560Z,94881.91
2022-12-07T01:31:44.871Z,94880.84
2022-12-07T01:34:55.492Z,94885.56
2022-12-07T01:38:03.871Z,94884.78
2022-12-07T01:41:13.363Z,94882.81
2022-12-07T01:44:26.321Z,94880.81
2022-12-07T01:47:34.724Z,94872.56
2022-12-07T01:50:46.684Z,94867.75
2022-12-07T01:53:55.754Z,94876.59
2022-12-07T01:57:08.824Z,94880.59
2022-12-07T02:00:19.246Z,94871.91
2022-12-07T02:03:36.635Z,94875.00
2022-12-07T02:06:47.832Z,94882.53
2022-12-07T02:09:56.358Z,94877.59
2022-12-07T02:13:11.095Z,94874.16
2022-12-07T02:16:34.349Z,94872.09
2022-12-07T02:20:20.144Z,94868.38
2022-12-07T02:24:18.448Z,94868.50
2022-12-07T02:27:49.083Z,94862.19
2022-12-07T02:31:08.358Z,94861.66
2022-12-07T02:34:28.540Z,94862.88
2022-12-07T02:37:45.500Z,94863.53
2022-12-07T02:41:00.017Z,94856.81
2022-12-07T02:44:14.560Z,94861.16
2022-12-07T02:47:26.984Z,94859.44
2022-12-07T02:50:35.251Z,94851.91
2022-12-07T02:53:46.131Z,94855.16
2022-12-07T02:57:07.420Z,94854.13
2022-12-07T03:00:21.201Z,94858.00
2022-12-07T03:03:33.034Z,94855.28
2022-12-07T03:06:53.098Z,94853.13
2022-12-07T03:10:09.516Z,94852.22
2022-12-07T03:13:26.230Z,94858.06
2022-12-07T03:16:43.116Z,94858.69
2022-12-07T03:20:00.392Z,94852.75
2022-12-07T03:23:12.852Z,94853.28
2022-12-07T03:26:26.486Z,94846.22
2022-12-07T03:29:43.713Z,94845.56
2022-12-07T03:33:01.920Z,94849.31
2022-12-07T03:36:19.276Z,94845.03
2022-12-07T03:39:35.780Z,94845.19
2022-12-07T03:42:45.118Z,94843.97
2022-12-07T03:46:10.651Z,94841.59
2022-12-07T03:49:27.776Z,94839.63
2022-12-07T03:52:44.402Z,94845.41
2022-12-07T03:55:56.464Z,94839.63
2022-12-07T03:59:04.972Z,94836.56
2022-12-07T04:02:16.256Z,94835.84
2022-12-07T04:05:25.277Z,94837.09
2022-12-07T04:08:34.887Z,94831.94
2022-12-07T04:11:43.143Z,94836.28
2022-12-07T04:14:51.559Z,94821.00
2022-12-07T04:17:59.854Z,94830.81
2022-12-07T04:21:08.391Z,94832.69
2022-12-07T04:24:18.536Z,94830.97
2022-12-07T04:27:26.858Z,94829.06
2022-12-07T04:30:35.115Z,94840.84
2022-12-07T04:33:43.391Z,94834.63
2022-12-07T04:36:52.483Z,94834.63
2022-12-07T04:40:02.275Z,94836.28
2022-12-07T04:43:10.781Z,94840.16
2022-12-07T04:46:19.021Z,94841.97
2022-12-07T04:49:28.234Z,94834.38
2022-12-07T04:52:36.468Z,94837.31
2022-12-07T04:55:46.382Z,94842.25
2022-12-07T04:58:56.175Z,94824.63
2022-12-07T05:02:04.521Z,94829.72
2022-12-07T05:05:13.891Z,94831.94
2022-12-07T05:08:22.231Z,94829.66
2022-12-07T05:11:41.187Z,94832.41
2022-12-07T05:14:49.558Z,94836.03
2022-12-07T05:17:57.891Z,94829.19
2022-12-07T05:21:06.442Z,94835.59
2022-12-07T05:24:16.940Z,94836.56
2022-12-07T05:27:26.581Z,94827.03
2022-12-07T05:30:35.052Z,94841.22
2022-12-07T05:33:43.385Z,94839.06
2022-12-07T05:36:52.107Z,94832.38
2022-12-07T05:40:00.803Z,94832.63
2022-12-07T05:43:10.811Z,94839.66
2022-12-07T05:46:19.120Z,94834.69
2022-12-07T05:49:27.788Z,94836.66
2022-12-07T05:52:36.019Z,94849.38
2022-12-07T05:55:45.804Z,94842.09
2022-12-07T05:59:12.976Z,94834.19
2022-12-07T06:02:21.529Z,94840.25
2022-12-07T06:05:29.836Z,94840.69
2022-12-07T06:08:38.234Z,94853.72
2022-12-07T06:12:04.482Z,94849.25
2022-12-07T06:15:14.889Z,94850.09
2022-12-07T06:18:23.325Z,94850.84
2022-12-07T06:21:31.981Z,94857.16
2022-12-07T06:24:41.775Z,94858.53
2022-12-07T06:27:50.335Z,94862.69
2022-12-07T06:31:02.355Z,94863.72
2022-12-07T06:34:14.310Z,94865.09
2022-12-07T06:37:22.555Z,94864.63
2022-12-07T06:40:31.913Z,94860.34
2022-12-07T06:43:40.230Z,94868.69
2022-12-07T06:46:50.705Z,94861.66
2022-12-07T06:49:59.072Z,94866.00
2022-12-07T06:53:07.608Z,94867.31
2022-12-07T06:56:16.229Z,94867.41
2022-12-07T06:59:24.732Z,94869.53
2022-12-07T07:02:34.424Z,94875.38
2022-12-07T07:05:43.445Z,94871.97
2022-12-07T07:08:52.662Z,94880.16
2022-12-07T07:12:00.902Z,94880.16
2022-12-07T07:15:10.906Z,94888.69
2022-12-07T07:18:21.809Z,94887.88
2022-12-07T07:21:30.042Z,94890.81
2022-12-07T07:24:38.390Z,94891.19
2022-12-07T07:27:46.571Z,94894.88
2022-12-07T07:30:54.913Z,94887.38
2022-12-07T07:34:04.615Z,94880.47
2022-12-07T07:37:18.671Z,94896.06
2022-12-07T07:40:31.566Z,94898.91
2022-12-07T07:43:39.861Z,94899.53
2022-12-07T07:46:48.098Z,94900.03
2022-12-07T07:49:58.202Z,94895.69
2022-12-07T07:53:06.505Z,94900.28
2022-12-07T07:56:14.714Z,94902.97
2022-12-07T07:59:23.152Z,94906.94
2022-12-07T08:02:31.543Z,94905.97
2022-12-07T08:05:41.463Z,94901.41
2022-12-07T08:08:49.818Z,94903.28
2022-12-07T08:11:58.311Z,94898.38
2022-12-07T08:15:08.486Z,94910.03
2022-12-07T08:18:18.000Z,94915.13
2022-12-07T08:21:27.691Z,94907.69
2022-12-07T08:24:36.572Z,94916.97
2022-12-07T08:27:44.879Z,94915.28
2022-12-07T08:30:53.271Z,94914.53
2022-12-07T08:34:01.862Z,94911.59
2022-12-07T08:37:11.559Z,94908.38
2022-12-07T08:40:22.048Z,94912.84
2022-12-07T08:43:30.641Z,94907.63
2022-12-07T08:46:44.206Z,94907.78
2022-12-07T08:49:55.519Z,94906.03
2022-12-07T08:53:07.387Z,94916.28
2022-12-07T08:56:16.075Z,94908.94
2022-12-07T08:59:25.494Z,94906.16
2022-12-07T09:02:34.115Z,94915.88
2022-12-07T09:05:42.528Z,94907.31
2022-12-07T09:08:57.091Z,94913.75
2022-12-07T09:12:06.136Z,94917.06
2022-12-07T09:15:14.568Z,94909.38
2022-12-07T09:18:23.264Z,94909.81
2022-12-07T09:21:31.695Z,94902.75
2022-12-07T09:24:41.651Z,94910.31
2022-12-07T09:27:50.050Z,94906.72
2022-12-07T09:31:26.965Z,94906.72
2022-12-07T09:34:27.604Z,94901.38
2022-12-07T09:37:37.164Z,94899.69
2022-12-07T09:40:49.202Z,94899.03
2022-12-07T09:44:06.953Z,94891.19
2022-12-07T09:47:15.251Z,94891.94
2022-12-07T09:50:26.784Z,94884.75
2022-12-07T09:53:39.656Z,94891.84
2022-12-07T09:56:49.487Z,94882.69
2022-12-07T10:00:02.932Z,94886.00
2022-12-07T10:03:14.993Z,94887.72
2022-12-07T10:06:23.720Z,94875.34
2022-12-07T10:09:36.150Z,94871.66
2022-12-07T10:13:05.107Z,94872.34
2022-12-07T10:16:42.484Z,94877.41
2022-12-07T10:19:51.133Z,94876.94
2022-12-07T10:23:03.547Z,94877.56
2022-12-07T10:26:29.746Z,94864.88
2022-12-07T10:29:41.616Z,94869.00
2022-12-07T10:32:49.896Z,94867.06
2022-12-07T10:35:59.067Z,94866.88
2022-12-07T10:39:16.444Z,94878.63
2022-12-07T10:42:27.389Z,94866.41
2022-12-07T10:45:58.185Z,94867.41
2022-12-07T10:49:54.467Z,94864.91
2022-12-07T10:53:45.983Z,94870.03
2022-12-07T10:57:12.516Z,94859.81
2022-12-07T11:00:24.618Z,94860.00
2022-12-07T11:03:59.029Z,94852.72
2022-12-07T11:07:19.901Z,94850.59
2022-12-07T11:10:41.071Z,94850.22
2022-12-07T11:13:58.735Z,94844.47
2022-12-07T11:17:16.759Z,94846.59
2022-12-07T11:20:45.320Z,94843.00
2022-12-07T11:24:05.930Z,94833.44
2022-12-07T11:27:27.982Z,94821.72
2022-12-07T11:30:46.794Z,94823.22
2022-12-07T11:34:03.018Z,94819.06
2022-12-07T11:37:20.252Z,94824.81
2022-12-07T11:40:35.674Z,94828.81
2022-12-07T11:43:58.162Z,94817.31
2022-12-07T11:47:13.888Z,94813.00
2022-12-07T11:50:34.876Z,94814.00
2022-12-07T11:53:51.374Z,94809.59
2022-12-07T11:57:10.059Z,94811.41
2022-12-07T12:00:21.430Z,94808.91
2022-12-07T12:03:40.146Z,94792.47
2022-12-07T12:06:48.686Z,94799.13
2022-12-07T12:10:07.363Z,94792.94
2022-12-07T12:18:02.824Z,94784.13
2022-12-07T12:21:19.708Z,94781.66
2022-12-07T12:24:37.302Z,94784.66
2022-12-07T12:27:49.793Z,94782.22
2022-12-07T12:31:14.934Z,94786.00
2022-12-07T12:34:43.033Z,94777.06
2022-12-07T12:38:17.754Z,94778.25
2022-12-07T12:42:10.092Z,94776.44
2022-12-07T12:45:25.533Z,94768.19
2022-12-07T12:48:39.159Z,94774.00
2022-12-07T12:51:49.890Z,94777.13
2022-12-07T12:55:04.030Z,94771.03
2022-12-07T12:58:44.504Z,94762.25
2022-12-07T13:01:59.080Z,94761.25
2022-12-07T13:05:22.350Z,94764.91
2022-12-07T13:08:35.162Z,94760.47
2022-12-07T13:11:48.333Z,94763.47
2022-12-07T13:15:02.067Z,94765.72
2022-12-07T13:18:36.599Z,94754.06
2022-12-07T13:21:46.437Z,94763.63
2022-12-07T13:24:58.874Z,94750.47
2022-12-07T13:28:18.658Z,94744.41
2022-12-07T13:31:36.923Z,94749.16
2022-12-07T13:34:45.741Z,94747.19
2022-12-07T13:37:54.108Z,94742.75
2022-12-07T13:41:15.043Z,94746.88
2022-12-07T13:44:24.541Z,94749.69
2022-12-07T13:47:43.865Z,94746.38
2022-12-07T13:50:57.365Z,94740.63
2022-12-07T13:54:14.019Z,94739.81
2022-12-07T13:57:22.572Z,94738.97
2022-12-07T14:00:32.541Z,94738.63
2022-12-07T14:03:42.341Z,94736.00
2022-12-07T14:06:53.525Z,94744.91
2022-12-07T14:10:04.793Z,94747.53
2022-12-07T14:13:34.947Z,94739.13
2022-12-07T14:16:43.346Z,94738.63
2022-12-07T14:19:56.222Z,94746.88
2022-12-07T14:23:10.941Z,94738.63
2022-12-07T14:26:22.722Z,94736.34
2022-12-07T14:29:35.415Z,94741.44
2022-12-07T14:32:49.322Z,94740.25
2022-12-07T14:35:59.453Z,94739.25
2022-12-07T14:39:13.074Z,94739.72
2022-12-07T14:42:23.184Z,94741.19
2022-12-07T14:45:32.584Z,94734.44
2022-12-07T14:55:47.223Z,94730.09
2022-12-07T14:58:56.468Z,94729.47
2022-12-07T15:02:06.399Z,94720.88
2022-12-07T15:05:16.527Z,94721.91
2022-12-07T15:08:26.711Z,94718.00
2022-12-07T15:11:36.437Z,94722.88
2022-12-07T15:14:47.347Z,94722.53
2022-12-07T15:17:56.053Z,94722.53
2022-12-07T15:21:05.006Z,94717.53
2022-12-07T15:24:14.962Z,94712.53
2022-12-07T15:27:23.182Z,94712.69
2022-12-07T15:30:31.531Z,94714.19
2022-12-07T15:33:40.923Z,94724.34
2022-12-07T15:36:49.203Z,94726.09
2022-12-07T15:40:04.116Z,94718.69
2022-12-07T15:43:29.502Z,94712.31
2022-12-07T15:46:41.338Z,94721.13
2022-12-07T15:49:49.963Z,94721.88
2022-12-07T15:53:00.546Z,94720.91
2022-12-07T15:56:11.308Z,94724.94
2022-12-07T15:59:19.615Z,94720.59
2022-12-07T16:02:28.325Z,94714.94
2022-12-07T16:05:36.586Z,94713.63
2022-12-07T16:08:45.790Z,94716.66
2022-12-07T16:11:55.592Z,94717.25
2022-12-07T16:15:05.457Z,94717.63
2022-12-07T16:18:13.955Z,94714.31
2022-12-07T16:21:25.410Z,94717.78
2022-12-07T16:24:34.544Z,94714.03
2022-12-07T16:27:44.469Z,94713.06
2022-12-07T16:31:04.228Z,94704.81
2022-12-07T16:34:12.661Z,94705.25
2022-12-07T16:37:20.885Z,94706.38
2022-12-07T16:40:29.105Z,94698.91
2022-12-07T16:43:39.613Z,94701.13
2022-12-07T16:46:48.034Z,94698.44
2022-12-07T16:49:57.406Z,94702.25
2022-12-07T16:53:05.656Z,94702.16
2022-12-07T16:56:17.403Z,94694.31
2022-12-07T16:59:27.305Z,94697.84
2022-12-07T17:02:35.653Z,94696.66
2022-12-07T17:05:46.551Z,94700.25
2022-12-07T17:08:55.436Z,94700.25
2022-12-07T17:12:03.865Z,94693.81
2022-12-07T17:15:21.893Z,94705.56
2022-12-07T17:18:33.066Z,94693.22
2022-12-07T17:21:41.795Z,94691.47
2022-12-07T17:24:50.365Z,94692.88
2022-12-07T17:28:00.740Z,94690.25
2022-12-07T17:31:14.494Z,94686.44
2022-12-07T17:34:23.056Z,94685.53
2022-12-07T17:37:33.475Z,94683.59
2022-12-07T17:40:41.777Z,94692.78
2022-12-07T17:43:50.086Z,94691.56
2022-12-07T17:47:02.590Z,94694.84
2022-12-07T17:50:12.154Z,94691.25
2022-12-07T17:53:19.542Z,94687.66
2022-12-07T17:56:29.174Z,94684.84
2022-12-07T17:59:38.078Z,94681.63
2022-12-07T18:02:47.956Z,94680.50
2022-12-07T18:05:56.229Z,94674.50
2022-12-07T18:09:05.991Z,94671.00
2022-12-07T18:12:14.381Z,94674.72
2022-12-07T18:15:22.690Z,94670.75
2022-12-07T18:18:32.618Z,94673.88
2022-12-07T18:21:41.076Z,94671.63
2022-12-07T18:24:49.443Z,94670.41
2022-12-07T18:27:57.716Z,94671.97
2022-12-07T18:31:15.176Z,94665.88
2022-12-07T18:34:26.209Z,94674.34
2022-12-07T18:37:34.568Z,94672.38
2022-12-07T18:40:44.862Z,94671.72
2022-12-07T18:43:53.145Z,94674.13
2022-12-07T18:47:01.614Z,94676.69
2022-12-07T18:50:12.198Z,94675.03
2022-12-07T18:53:20.530Z,94675.28
2022-12-07T18:56:29.020Z,94666.38
2022-12-07T18:59:50.107Z,94665.69
2022-12-07T19:02:58.593Z,94665.69
2022-12-07T19:06:09.428Z,94667.25
2022-12-07T19:09:20.063Z,94673.03
2022-12-07T19:12:28.453Z,94666.56
2022-12-07T19:15:36.762Z,94658.97
2022-12-07T19:18:50.704Z,94668.34
2022-12-07T19:22:01.886Z,94658.97
2022-12-07T19:25:10.635Z,94666.25
2022-12-07T19:28:18.983Z,94668.06
2022-12-07T19:31:27.307Z,94663.31
2022-12-07T19:34:36.310Z,94658.75
2022-12-07T19:37:45.956Z,94664.34
2022-12-07T19:40:54.167Z,94662.81
2022-12-07T19:44:05.100Z,94655.53
2022-12-07T19:47:16.605Z,94649.31
2022-12-07T19:50:25.008Z,94648.88
2022-12-07T19:53:35.014Z,94641.88
2022-12-07T19:56:44.849Z,94645.88
2022-12-07T19:59:54.100Z,94651.94
2022-12-07T20:03:03.440Z,94643.25
2022-12-07T20:06:14.611Z,94651.59
2022-12-07T20:09:31.637Z,94650.78
2022-12-07T20:12:57.807Z,94647.72
2022-12-07T20:16:19.470Z,94647.47
2022-12-07T20:19:30.801Z,94644.16
2022-12-07T20:22:39.815Z,94638.47
2022-12-07T20:25:50.651Z,94640.38
2022-12-07T20:29:04.361Z,94637.88
2022-12-07T20:32:19.277Z,94635.13
2022-12-07T20:35:27.649Z,94629.72
2022-12-07T20:38:37.191Z,94627.50
2022-12-07T20:42:15.749Z,94628.94
2022-12-07T20:45:25.303Z,94632.34
2022-12-07T20:48:40.642Z,94626.94
2022-12-07T20:51:51.024Z,94627.19
2022-12-07T20:55:01.076Z,94616.84
2022-12-07T20:58:11.853Z,94622.63
2022-12-07T21:01:20.547Z,94621.31
2022-12-07T21:04:29.741Z,94620.53
2022-12-07T21:07:38.697Z,94611.44
2022-12-07T21:10:47.732Z,94608.53
2022-12-07T21:13:58.324Z,94606.22
2022-12-07T21:17:07.261Z,94606.94
2022-12-07T21:20:15.962Z,94605.91
2022-12-07T21:23:24.249Z,94608.53
2022-12-07T21:26:36.441Z,94607.22
2022-12-07T21:29:48.704Z,94601.97
2022-12-07T21:33:00.998Z,94600.66
2022-12-07T21:36:11.890Z,94600.75
2022-12-07T21:39:20.184Z,94597.16
2022-12-07T21:42:28.612Z,94592.38
2022-12-07T21:45:38.232Z,94596.22
2022-12-07T21:48:51.244Z,94595.56
2022-12-07T21:51:59.538Z,94597.88
2022-12-07T21:55:08.543Z,94594.38
2022-12-07T21:58:16.788Z,94603.66
2022-12-07T22:01:29.945Z,94594.09
2022-12-07T22:04:38.301Z,94589.38
2022-12-07T22:07:46.595Z,94599.19
2022-12-07T22:10:54.867Z,94592.75
2022-12-07T22:14:18.304Z,94595.50
2022-12-07T22:17:29.643Z,94597.59
2022-12-07T22:20:37.941Z,94590.41
2022-12-07T22:23:47.635Z,94586.81
2022-12-07T22:26:55.909Z,94594.16
2022-12-07T22:30:04.543Z,94579.97
2022-12-07T22:33:14.172Z,94580.59
2022-12-07T22:36:22.581Z,94579.09
2022-12-07T22:39:31.140Z,94585.84
2022-12-07T22:42:39.401Z,94576.28
2022-12-07T22:45:57.028Z,94582.50
2022-12-07T22:49:07.651Z,94567.72
2022-12-07T22:52:16.159Z,94569.31
2022-12-07T22:55:24.403Z,94560.69
2022-12-07T22:58:32.671Z,94561.34
2022-12-07T23:01:41.516Z,94558.06
2022-12-07T23:04:51.126Z,94554.66
2022-12-07T23:07:59.602Z,94559.22
2022-12-07T23:11:11.561Z,94551.69
2022-12-07T23:14:22.126Z,94546.44
2022-12-07T23:17:30.357Z,94548.69
2022-12-07T23:20:40.138Z,94545.16
2022-12-07T23:23:48.692Z,94543.09
2022-12-07T23:26:57.444Z,94538.81
2022-12-07T23:30:07.610Z,94538.34
2022-12-07T23:33:15.917Z,94533.47
2022-12-07T23:36:28.812Z,94532.22
2022-12-07T23:39:38.063Z,94523.41
2022-12-07T23:42:46.518Z,94530.91
2022-12-07T23:45:54.745Z,94509.72
2022-12-07T23:49:05.701Z,94502.06
2022-12-07T23:52:15.555Z,94514.25
2022-12-07T23:55:23.830Z,94503.28
2022-12-07T23:58:32.204Z,94497.84
